Aérodrome :
LOGIN :

S'inscrire | Disclaimer

   EN    FR    IT 

 










Légende :    VFR   VFR Marginal   IFR   IFR Intensif   IFR Très Intensif
Visi : 
Plafond : 
>= 8 km
>= 3000ft
5 à 8 km
1000 à 3000 ft
1500m à 5 km
500 à 1000 ft
800 à 1500m
200 à 500 ft
< 800m
< 200 ft
Symboles :   Orages  Brouillard  Fortes neiges  Fortes précipitations  Vent > 20 kt
SIGMETs :   Divers  Orages  Givrage  Turbulence  Onde Orograph.  Cendres Volcan.






- Altitude de l'aérodrome : 83 ft
- Code IATA : LHR


EGLL - London Heathrow

DERNIER METAR :
  • 240150Z AUTO 35003KT 4900 BR SCT008 SCT012 OVC022 06/06 Q1025 TEMPO 5000 HZ BKN008

METARs EXPIRÉS :
  • 240120Z AUTO 32003KT 4700 BR BKN008 OVC023 06/06 Q1025 TEMPO SCT008
  • 240050Z AUTO 32003KT 3800 BR SCT006 OVC022 06/06 Q1026 TEMPO BKN006
  • 240020Z AUTO VRB02KT 4300 BR FEW008 OVC022 06/06 Q1026 TEMPO BKN008
  • 232350Z AUTO VRB03KT 4500 HZ OVC022 06/06 Q1026 TEMP 5000
  • 232320Z AUTO VRB02KT 4600 HZ OVC020 07/06 Q1026 TEMPO 5000

TAF AMD TAF EGLL
Valide du 24 à 01h jusqu'au 25 à 06h UTC


240133Z 2401/2506 VRB03KT 9999 BKN015
BECMG 2401/2403 6000 BKN009
TEMPO 2401/2412 4000 BR
PROB30
TEMPO 2406/2410 BKN003
BECMG 2412/2415 9999 SCT014
TEMPO 2415/2501 4000 -RADZ BKN009



MET'MAP, la Météo Aéronautique d'un coup d'oeil ! - Copyright ORBIFLY Décembre 2007 - Disclaimer

ORBIFLY MET'MAP TEAM :

Programmation & Développement : Alexandra Zaïnal
Sur une idée originale de : Baudouin d'Aumeries
Assistance à la programmation : Marc-Olivier Méhu
Soutien technique & logistique : Manuel Goepfert

Contact : metmap@orbifly.com




SOURCES & CREDITS :

   NOAA